sensor_id;sensor_type;location;lat;lon;timestamp;pressure;altitude;pressure_sealevel;temperature;humidity
21588;BME280;10956;48.878;13.316;2022-12-10T00:01:11;92822.94;;;0.80;100.00
21588;BME280;10956;48.878;13.316;2022-12-10T00:03:37;92827.91;;;0.82;100.00
21588;BME280;10956;48.878;13.316;2022-12-10T00:06:12;92828.69;;;0.82;100.00
21588;BME280;10956;48.878;13.316;2022-12-10T00:08:38;92830.25;;;0.83;100.00
21588;BME280;10956;48.878;13.316;2022-12-10T00:11:05;92830.78;;;0.85;100.00
21588;BME280;10956;48.878;13.316;2022-12-10T00:13:33;92827.72;;;0.88;100.00
21588;BME280;10956;48.878;13.316;2022-12-10T00:15:59;92823.56;;;0.87;100.00
21588;BME280;10956;48.878;13.316;2022-12-10T00:18:25;92815.78;;;0.87;100.00
21588;BME280;10956;48.878;13.316;2022-12-10T00:20:50;92815.78;;;0.87;100.00
21588;BME280;10956;48.878;13.316;2022-12-10T00:23:16;92816.31;;;0.89;100.00
21588;BME280;10956;48.878;13.316;2022-12-10T00:25:41;92810.13;;;0.90;100.00
21588;BME280;10956;48.878;13.316;2022-12-10T00:28:06;92808.56;;;0.89;100.00
21588;BME280;10956;48.878;13.316;2022-12-10T00:30:32;92811.38;;;0.88;100.00
21588;BME280;10956;48.878;13.316;2022-12-10T00:32:58;92809.56;;;0.88;100.00
21588;BME280;10956;48.878;13.316;2022-12-10T00:35:23;92802.81;;;0.87;100.00
21588;BME280;10956;48.878;13.316;2022-12-10T00:37:49;92806.91;;;0.83;100.00
21588;BME280;10956;48.878;13.316;2022-12-10T00:40:14;92806.84;;;0.78;100.00
21588;BME280;10956;48.878;13.316;2022-12-10T00:42:40;92805.28;;;0.77;100.00
21588;BME280;10956;48.878;13.316;2022-12-10T00:45:05;92815.88;;;0.76;100.00
21588;BME280;10956;48.878;13.316;2022-12-10T00:47:31;92807.81;;;0.72;100.00
21588;BME280;10956;48.878;13.316;2022-12-10T00:49:56;92812.84;;;0.62;100.00
21588;BME280;10956;48.878;13.316;2022-12-10T00:52:22;92808.63;;;0.56;100.00
21588;BME280;10956;48.878;13.316;2022-12-10T00:54:47;92821.03;;;0.54;100.00
21588;BME280;10956;48.878;13.316;2022-12-10T00:57:12;92822.28;;;0.51;100.00
21588;BME280;10956;48.878;13.316;2022-12-10T00:59:38;92835.00;;;0.53;100.00
21588;BME280;10956;48.878;13.316;2022-12-10T01:02:03;92832.50;;;0.58;100.00
21588;BME280;10956;48.878;13.316;2022-12-10T01:04:29;92840.03;;;0.59;100.00
21588;BME280;10956;48.878;13.316;2022-12-10T01:06:54;92838.22;;;0.60;100.00
21588;BME280;10956;48.878;13.316;2022-12-10T01:09:26;92839.56;;;0.62;100.00
21588;BME280;10956;48.878;13.316;2022-12-10T01:11:53;92848.19;;;0.68;100.00
21588;BME280;10956;48.878;13.316;2022-12-10T01:14:24;92861.69;;;0.70;100.00
21588;BME280;10956;48.878;13.316;2022-12-10T01:16:54;92861.16;;;0.68;100.00
21588;BME280;10956;48.878;13.316;2022-12-10T01:19:20;92870.97;;;0.66;100.00
21588;BME280;10956;48.878;13.316;2022-12-10T01:21:49;92871.91;;;0.60;100.00
21588;BME280;10956;48.878;13.316;2022-12-10T01:24:15;92873.97;;;0.58;100.00
21588;BME280;10956;48.878;13.316;2022-12-10T01:26:40;92870.81;;;0.56;100.00
21588;BME280;10956;48.878;13.316;2022-12-10T01:29:06;92871.38;;;0.58;100.00
21588;BME280;10956;48.878;13.316;2022-12-10T01:31:34;92878.19;;;0.64;100.00
21588;BME280;10956;48.878;13.316;2022-12-10T01:34:01;92875.59;;;0.64;100.00
21588;BME280;10956;48.878;13.316;2022-12-10T01:36:31;92876.63;;;0.63;100.00
21588;BME280;10956;48.878;13.316;2022-12-10T01:38:58;92875.69;;;0.69;100.00
21588;BME280;10956;48.878;13.316;2022-12-10T01:41:26;92877.25;;;0.70;100.00
21588;BME280;10956;48.878;13.316;2022-12-10T01:43:55;92874.44;;;0.72;100.00
21588;BME280;10956;48.878;13.316;2022-12-10T01:46:27;92869.06;;;0.78;100.00
21588;BME280;10956;48.878;13.316;2022-12-10T01:48:54;92875.53;;;0.76;100.00
21588;BME280;10956;48.878;13.316;2022-12-10T01:51:21;92865.31;;;0.69;100.00
21588;BME280;10956;48.878;13.316;2022-12-10T01:53:47;92885.03;;;0.70;100.00
21588;BME280;10956;48.878;13.316;2022-12-10T01:56:15;92884.81;;;0.72;100.00
21588;BME280;10956;48.878;13.316;2022-12-10T01:58:41;92893.13;;;0.74;100.00
21588;BME280;10956;48.878;13.316;2022-12-10T02:06:28;92872.16;;;0.75;100.00
21588;BME280;10956;48.878;13.316;2022-12-10T02:09:09;92879.13;;;0.75;100.00
21588;BME280;10956;48.878;13.316;2022-12-10T02:12:37;92874.75;;;0.75;100.00
21588;BME280;10956;48.878;13.316;2022-12-10T02:14:43;92877.09;;;0.77;100.00
21588;BME280;10956;48.878;13.316;2022-12-10T02:17:28;92864.91;;;0.77;100.00
21588;BME280;10956;48.878;13.316;2022-12-10T02:20:08;92859.19;;;0.75;100.00
21588;BME280;10956;48.878;13.316;2022-12-10T02:22:41;92869.56;;;0.75;100.00
21588;BME280;10956;48.878;13.316;2022-12-10T02:25:12;92873.16;;;0.74;100.00
21588;BME280;10956;48.878;13.316;2022-12-10T02:27:52;92870.34;;;0.76;100.00
21588;BME280;10956;48.878;13.316;2022-12-10T02:30:20;92879.44;;;0.78;100.00
21588;BME280;10956;48.878;13.316;2022-12-10T02:32:47;92860.81;;;0.81;100.00
21588;BME280;10956;48.878;13.316;2022-12-10T02:35:19;92866.25;;;0.80;100.00
21588;BME280;10956;48.878;13.316;2022-12-10T02:37:49;92863.88;;;0.78;100.00
21588;BME280;10956;48.878;13.316;2022-12-10T02:40:22;92855.56;;;0.76;100.00
21588;BME280;10956;48.878;13.316;2022-12-10T02:42:50;92849.28;;;0.72;100.00
21588;BME280;10956;48.878;13.316;2022-12-10T02:45:17;92852.91;;;0.71;100.00
21588;BME280;10956;48.878;13.316;2022-12-10T02:47:43;92863.28;;;0.71;100.00
21588;BME280;10956;48.878;13.316;2022-12-10T02:50:10;92849.28;;;0.72;100.00
21588;BME280;10956;48.878;13.316;2022-12-10T02:52:39;92850.06;;;0.73;100.00
21588;BME280;10956;48.878;13.316;2022-12-10T02:55:05;92843.94;;;0.62;100.00
21588;BME280;10956;48.878;13.316;2022-12-10T03:00:08;92850.56;;;0.53;100.00
21588;BME280;10956;48.878;13.316;2022-12-10T03:10:56;92842.94;;;0.63;100.00
21588;BME280;10956;48.878;13.316;2022-12-10T03:13:35;92849.22;;;0.67;100.00
21588;BME280;10956;48.878;13.316;2022-12-10T03:16:04;92846.63;;;0.67;100.00
21588;BME280;10956;48.878;13.316;2022-12-10T03:18:31;92833.13;;;0.65;100.00
21588;BME280;10956;48.878;13.316;2022-12-10T03:21:03;92838.28;;;0.65;100.00
21588;BME280;10956;48.878;13.316;2022-12-10T03:23:29;92844.25;;;0.66;100.00
21588;BME280;10956;48.878;13.316;2022-12-10T03:25:58;92832.09;;;0.66;100.00
21588;BME280;10956;48.878;13.316;2022-12-10T03:28:24;92829.97;;;0.63;100.00
21588;BME280;10956;48.878;13.316;2022-12-10T03:30:51;92822.59;;;0.55;100.00
21588;BME280;10956;48.878;13.316;2022-12-10T03:33:18;92827.78;;;0.55;100.00
21588;BME280;10956;48.878;13.316;2022-12-10T03:35:44;92831.41;;;0.54;100.00
21588;BME280;10956;48.878;13.316;2022-12-10T03:38:11;92840.19;;;0.53;100.00
21588;BME280;10956;48.878;13.316;2022-12-10T03:40:37;92844.91;;;0.56;100.00
21588;BME280;10956;48.878;13.316;2022-12-10T03:43:02;92837.69;;;0.58;100.00
21588;BME280;10956;48.878;13.316;2022-12-10T03:45:27;92853.53;;;0.61;100.00
21588;BME280;10956;48.878;13.316;2022-12-10T03:47:53;92860.06;;;0.64;100.00
21588;BME280;10956;48.878;13.316;2022-12-10T03:50:18;92871.44;;;0.63;100.00
21588;BME280;10956;48.878;13.316;2022-12-10T03:52:44;92859.44;;;0.57;100.00
21588;BME280;10956;48.878;13.316;2022-12-10T03:55:10;92859.59;;;0.50;100.00
21588;BME280;10956;48.878;13.316;2022-12-10T03:57:35;92861.94;;;0.52;100.00
21588;BME280;10956;48.878;13.316;2022-12-10T04:00:03;92863.03;;;0.56;100.00
21588;BME280;10956;48.878;13.316;2022-12-10T04:02:29;92861.56;;;0.60;100.00
21588;BME280;10956;48.878;13.316;2022-12-10T04:04:54;92864.16;;;0.60;100.00
21588;BME280;10956;48.878;13.316;2022-12-10T04:07:20;92858.66;;;0.56;100.00
21588;BME280;10956;48.878;13.316;2022-12-10T04:09:45;92851.66;;;0.57;100.00
21588;BME280;10956;48.878;13.316;2022-12-10T04:12:10;92861.56;;;0.60;100.00
21588;BME280;10956;48.878;13.316;2022-12-10T04:14:36;92868.31;;;0.61;100.00
21588;BME280;10956;48.878;13.316;2022-12-10T04:17:20;92868.69;;;0.53;100.00
21588;BME280;10956;48.878;13.316;2022-12-10T04:19:45;92864.53;;;0.52;100.00
21588;BME280;10956;48.878;13.316;2022-12-10T04:22:11;92868.94;;;0.51;100.00
21588;BME280;10956;48.878;13.316;2022-12-10T04:24:55;92866.59;;;0.50;100.00
21588;BME280;10956;48.878;13.316;2022-12-10T04:27:39;92865.00;;;0.49;100.00
21588;BME280;10956;48.878;13.316;2022-12-10T04:30:07;92850.56;;;0.53;100.00
21588;BME280;10956;48.878;13.316;2022-12-10T04:32:33;92864.84;;;0.55;100.00
21588;BME280;10956;48.878;13.316;2022-12-10T04:34:58;92874.97;;;0.57;100.00
21588;BME280;10956;48.878;13.316;2022-12-10T04:37:25;92867.44;;;0.55;100.00
21588;BME280;10956;48.878;13.316;2022-12-10T04:39:50;92872.41;;;0.57;100.00
21588;BME280;10956;48.878;13.316;2022-12-10T04:42:17;92869.25;;;0.55;100.00
21588;BME280;10956;48.878;13.316;2022-12-10T04:44:43;92876.78;;;0.56;100.00
21588;BME280;10956;48.878;13.316;2022-12-10T04:47:09;92864.63;;;0.57;100.00
21588;BME280;10956;48.878;13.316;2022-12-10T04:49:36;92873.50;;;0.61;100.00
21588;BME280;10956;48.878;13.316;2022-12-10T04:52:02;92873.03;;;0.64;100.00
21588;BME280;10956;48.878;13.316;2022-12-10T04:54:28;92882.13;;;0.67;100.00
21588;BME280;10956;48.878;13.316;2022-12-10T04:56:54;92882.59;;;0.63;100.00
21588;BME280;10956;48.878;13.316;2022-12-10T04:59:19;92875.84;;;0.62;100.00
21588;BME280;10956;48.878;13.316;2022-12-10T05:01:45;92869.25;;;0.55;100.00
21588;BME280;10956;48.878;13.316;2022-12-10T05:04:14;92883.31;;;0.59;100.00
21588;BME280;10956;48.878;13.316;2022-12-10T05:06:40;92886.69;;;0.59;100.00
21588;BME280;10956;48.878;13.316;2022-12-10T05:09:06;92891.09;;;0.59;100.00
21588;BME280;10956;48.878;13.316;2022-12-10T05:11:32;92896.59;;;0.62;100.00
21588;BME280;10956;48.878;13.316;2022-12-10T05:13:58;92895.31;;;0.65;100.00
21588;BME280;10956;48.878;13.316;2022-12-10T05:16:26;92892.25;;;0.68;100.00
21588;BME280;10956;48.878;13.316;2022-12-10T05:18:53;92886.53;;;0.66;100.00
21588;BME280;10956;48.878;13.316;2022-12-10T05:21:20;92887.31;;;0.67;100.00
21588;BME280;10956;48.878;13.316;2022-12-10T05:23:50;92886.06;;;0.69;100.00
21588;BME280;10956;48.878;13.316;2022-12-10T05:26:22;92875.75;;;0.74;100.00
21588;BME280;10956;48.878;13.316;2022-12-10T05:28:52;92880.41;;;0.72;100.00
21588;BME280;10956;48.878;13.316;2022-12-10T05:31:21;92876.78;;;0.73;100.00
21588;BME280;10956;48.878;13.316;2022-12-10T05:33:46;92886.91;;;0.75;100.00
21588;BME280;10956;48.878;13.316;2022-12-10T05:36:14;92893.91;;;0.74;100.00
21588;BME280;10956;48.878;13.316;2022-12-10T05:38:40;92882.28;;;0.77;100.00
21588;BME280;10956;48.878;13.316;2022-12-10T05:41:11;92880.22;;;0.79;100.00
21588;BME280;10956;48.878;13.316;2022-12-10T05:43:37;92865.47;;;0.79;100.00
21588;BME280;10956;48.878;13.316;2022-12-10T05:46:05;92860.28;;;0.79;100.00
21588;BME280;10956;48.878;13.316;2022-12-10T05:48:31;92853.28;;;0.80;100.00
21588;BME280;10956;48.878;13.316;2022-12-10T05:50:57;92860.03;;;0.81;100.00
21588;BME280;10956;48.878;13.316;2022-12-10T05:53:23;92864.69;;;0.79;100.00
21588;BME280;10956;48.878;13.316;2022-12-10T05:55:49;92861.84;;;0.80;100.00
21588;BME280;10956;48.878;13.316;2022-12-10T05:58:15;92861.84;;;0.80;100.00
21588;BME280;10956;48.878;13.316;2022-12-10T06:00:41;92871.19;;;0.81;100.00
21588;BME280;10956;48.878;13.316;2022-12-10T06:03:07;92879.28;;;0.85;100.00
21588;BME280;10956;48.878;13.316;2022-12-10T06:05:37;92871.28;;;0.86;100.00
21588;BME280;10956;48.878;13.316;2022-12-10T06:08:03;92879.84;;;0.87;100.00
21588;BME280;10956;48.878;13.316;2022-12-10T06:10:29;92873.84;;;0.86;100.00
21588;BME280;10956;48.878;13.316;2022-12-10T06:12:54;92875.34;;;0.82;100.00
21588;BME280;10956;48.878;13.316;2022-12-10T06:15:20;92882.59;;;0.80;100.00
21588;BME280;10956;48.878;13.316;2022-12-10T06:17:45;92886.69;;;0.76;100.00
21588;BME280;10956;48.878;13.316;2022-12-10T06:20:10;92884.00;;;0.71;100.00
21588;BME280;10956;48.878;13.316;2022-12-10T06:22:36;92885.59;;;0.72;100.00
21588;BME280;10956;48.878;13.316;2022-12-10T06:25:02;92888.72;;;0.74;100.00
21588;BME280;10956;48.878;13.316;2022-12-10T06:27:29;92889.19;;;0.71;100.00
21588;BME280;10956;48.878;13.316;2022-12-10T06:29:55;92895.94;;;0.72;100.00
21588;BME280;10956;48.878;13.316;2022-12-10T06:32:20;92903.72;;;0.72;100.00
21588;BME280;10956;48.878;13.316;2022-12-10T06:34:46;92910.88;;;0.65;100.00
21588;BME280;10956;48.878;13.316;2022-12-10T06:37:11;92900.50;;;0.65;100.00
21588;BME280;10956;48.878;13.316;2022-12-10T06:39:37;92907.03;;;0.68;100.00
21588;BME280;10956;48.878;13.316;2022-12-10T06:42:02;92904.75;;;0.71;100.00
21588;BME280;10956;48.878;13.316;2022-12-10T06:44:28;92898.00;;;0.70;100.00
21588;BME280;10956;48.878;13.316;2022-12-10T06:46:53;92899.56;;;0.71;100.00
21588;BME280;10956;48.878;13.316;2022-12-10T06:49:18;92901.69;;;0.74;100.00
21588;BME280;10956;48.878;13.316;2022-12-10T06:51:44;92897.06;;;0.76;100.00
21588;BME280;10956;48.878;13.316;2022-12-10T06:54:09;92895.00;;;0.78;100.00
21588;BME280;10956;48.878;13.316;2022-12-10T06:56:35;92900.44;;;0.77;100.00
21588;BME280;10956;48.878;13.316;2022-12-10T06:59:04;92904.34;;;0.79;100.00
21588;BME280;10956;48.878;13.316;2022-12-10T07:01:31;92913.72;;;0.80;100.00
21588;BME280;10956;48.878;13.316;2022-12-10T07:03:57;92908.53;;;0.80;100.00
21588;BME280;10956;48.878;13.316;2022-12-10T07:06:24;92910.63;;;0.83;100.00
21588;BME280;10956;48.878;13.316;2022-12-10T07:08:50;92910.41;;;0.85;100.00
21588;BME280;10956;48.878;13.316;2022-12-10T07:11:17;92918.97;;;0.85;100.00
21588;BME280;10956;48.878;13.316;2022-12-10T07:13:43;92925.72;;;0.86;100.00
21588;BME280;10956;48.878;13.316;2022-12-10T07:16:20;92922.03;;;0.82;100.00
21588;BME280;10956;48.878;13.316;2022-12-10T07:18:46;92915.03;;;0.83;100.00
21588;BME280;10956;48.878;13.316;2022-12-10T07:21:33;92920.31;;;0.88;100.00
21588;BME280;10956;48.878;13.316;2022-12-10T07:24:05;92926.28;;;0.88;100.00
21588;BME280;10956;48.878;13.316;2022-12-10T07:26:34;92913.84;;;0.90;100.00
21588;BME280;10956;48.878;13.316;2022-12-10T07:29:03;92917.00;;;0.92;100.00
21588;BME280;10956;48.878;13.316;2022-12-10T07:31:28;92922.81;;;1.00;100.00
21588;BME280;10956;48.878;13.316;2022-12-10T07:33:54;92919.66;;;0.98;100.00
21588;BME280;10956;48.878;13.316;2022-12-10T07:36:22;92923.75;;;0.93;100.00
21588;BME280;10956;48.878;13.316;2022-12-10T07:38:48;92923.28;;;0.96;100.00
21588;BME280;10956;48.878;13.316;2022-12-10T07:41:15;92924.84;;;0.98;100.00
21588;BME280;10956;48.878;13.316;2022-12-10T07:43:42;92912.19;;;1.01;100.00
21588;BME280;10956;48.878;13.316;2022-12-10T07:46:10;92906.59;;;1.09;100.00
21588;BME280;10956;48.878;13.316;2022-12-10T07:48:38;92904.38;;;1.18;100.00
21588;BME280;10956;48.878;13.316;2022-12-10T07:51:04;92900.75;;;1.19;100.00
21588;BME280;10956;48.878;13.316;2022-12-10T07:53:29;92896.97;;;1.26;100.00
21588;BME280;10956;48.878;13.316;2022-12-10T07:55:55;92905.59;;;1.32;100.00
21588;BME280;10956;48.878;13.316;2022-12-10T07:58:20;92905.13;;;1.35;100.00
21588;BME280;10956;48.878;13.316;2022-12-10T08:00:46;92905.13;;;1.35;100.00
21588;BME280;10956;48.878;13.316;2022-12-10T08:03:11;92919.13;;;1.34;100.00
21588;BME280;10956;48.878;13.316;2022-12-10T08:05:38;92915.75;;;1.34;100.00
21588;BME280;10956;48.878;13.316;2022-12-10T08:08:04;92913.94;;;1.34;100.00
21588;BME280;10956;48.878;13.316;2022-12-10T08:10:30;92911.41;;;1.39;100.00
21588;BME280;10956;48.878;13.316;2022-12-10T08:12:55;92901.88;;;1.45;100.00
21588;BME280;10956;48.878;13.316;2022-12-10T08:15:20;92907.72;;;1.57;100.00
21588;BME280;10956;48.878;13.316;2022-12-10T08:17:46;92907.84;;;1.67;100.00
21588;BME280;10956;48.878;13.316;2022-12-10T08:20:11;92909.25;;;1.75;100.00
21588;BME280;10956;48.878;13.316;2022-12-10T08:22:37;92906.22;;;1.83;100.00
21588;BME280;10956;48.878;13.316;2022-12-10T08:25:03;92900.53;;;1.86;100.00
21588;BME280;10956;48.878;13.316;2022-12-10T08:27:28;92898.09;;;2.01;100.00
21588;BME280;10956;48.878;13.316;2022-12-10T08:29:54;92898.69;;;2.08;100.00
21588;BME280;10956;48.878;13.316;2022-12-10T08:32:19;92890.94;;;2.13;100.00
21588;BME280;10956;48.878;13.316;2022-12-10T08:34:45;92884.47;;;2.16;100.00
21588;BME280;10956;48.878;13.316;2022-12-10T08:37:10;92890.94;;;2.13;100.00
21588;BME280;10956;48.878;13.316;2022-12-10T08:39:36;92887.03;;;2.11;100.00
21588;BME280;10956;48.878;13.316;2022-12-10T08:42:01;92880.56;;;2.13;100.00
21588;BME280;10956;48.878;13.316;2022-12-10T08:44:27;92885.53;;;2.20;100.00
21588;BME280;10956;48.878;13.316;2022-12-10T08:46:52;92898.34;;;2.26;100.00
21588;BME280;10956;48.878;13.316;2022-12-10T08:49:17;92910.84;;;2.30;100.00
21588;BME280;10956;48.878;13.316;2022-12-10T08:51:43;92908.69;;;2.21;100.00
21588;BME280;10956;48.878;13.316;2022-12-10T08:54:08;92908.59;;;2.11;100.00
21588;BME280;10956;48.878;13.316;2022-12-10T08:56:34;92914.28;;;2.08;100.00
21588;BME280;10956;48.878;13.316;2022-12-10T08:59:00;92911.09;;;2.01;100.00
21588;BME280;10956;48.878;13.316;2022-12-10T09:01:25;92911.63;;;2.03;100.00
21588;BME280;10956;48.878;13.316;2022-12-10T09:03:50;92909.38;;;2.12;100.00
21588;BME280;10956;48.878;13.316;2022-12-10T09:06:19;92902.16;;;2.19;100.00
21588;BME280;10956;48.878;13.316;2022-12-10T09:08:45;92907.72;;;2.28;100.00
21588;BME280;10956;48.878;13.316;2022-12-10T09:11:25;92907.22;;;2.31;100.00
21588;BME280;10956;48.878;13.316;2022-12-10T09:13:51;92917.63;;;2.31;100.00
21588;BME280;10956;48.878;13.316;2022-12-10T09:16:17;92921.75;;;2.26;100.00
21588;BME280;10956;48.878;13.316;2022-12-10T09:18:43;92921.16;;;2.19;100.00
21588;BME280;10956;48.878;13.316;2022-12-10T09:21:11;92913.78;;;2.11;100.00
21588;BME280;10956;48.878;13.316;2022-12-10T09:23:38;92920.06;;;2.15;100.00
21588;BME280;10956;48.878;13.316;2022-12-10T09:26:12;92914.19;;;2.25;100.00
21588;BME280;10956;48.878;13.316;2022-12-10T09:28:38;92921.75;;;2.26;100.00
21588;BME280;10956;48.878;13.316;2022-12-10T09:31:05;92926.44;;;2.30;100.00
21588;BME280;10956;48.878;13.316;2022-12-10T09:33:31;92921.75;;;2.26;100.00
21588;BME280;10956;48.878;13.316;2022-12-10T09:35:57;92919.63;;;2.23;100.00
21588;BME280;10956;48.878;13.316;2022-12-10T09:38:22;92915.94;;;2.19;100.00
21588;BME280;10956;48.878;13.316;2022-12-10T09:41:03;92919.59;;;2.18;100.00
21588;BME280;10956;48.878;13.316;2022-12-10T09:43:47;92914.09;;;2.15;100.00
21588;BME280;10956;48.878;13.316;2022-12-10T09:48:58;92921.03;;;2.09;100.00
21588;BME280;10956;48.878;13.316;2022-12-10T09:51:32;92920.56;;;2.12;100.00
21588;BME280;10956;48.878;13.316;2022-12-10T09:54:00;92917.22;;;2.17;100.00
21588;BME280;10956;48.878;13.316;2022-12-10T09:56:33;92924.78;;;2.18;100.00
21588;BME280;10956;48.878;13.316;2022-12-10T09:59:06;92914.97;;;2.25;100.00
21588;BME280;10956;48.878;13.316;2022-12-10T10:01:37;92916.34;;;2.33;100.00
21588;BME280;10956;48.878;13.316;2022-12-10T10:04:03;92916.72;;;2.47;100.00
21588;BME280;10956;48.878;13.316;2022-12-10T10:06:29;92915.75;;;2.53;100.00
21588;BME280;10956;48.878;13.316;2022-12-10T10:08:58;92918.34;;;2.53;100.00
21588;BME280;10956;48.878;13.316;2022-12-10T10:11:31;92918.34;;;2.53;100.00
21588;BME280;10956;48.878;13.316;2022-12-10T10:14:10;92912.94;;;2.59;100.00
21588;BME280;10956;48.878;13.316;2022-12-10T10:16:48;92910.13;;;2.66;100.00
21588;BME280;10956;48.878;13.316;2022-12-10T10:19:18;92908.63;;;2.75;100.00
21588;BME280;10956;48.878;13.316;2022-12-10T10:21:48;92909.22;;;2.82;100.00
21588;BME280;10956;48.878;13.316;2022-12-10T10:24:19;92912.34;;;2.84;100.00
21588;BME280;10956;48.878;13.316;2022-12-10T10:26:46;92914.94;;;2.84;100.00
21588;BME280;10956;48.878;13.316;2022-12-10T10:29:15;92909.00;;;2.89;100.00
21588;BME280;10956;48.878;13.316;2022-12-10T10:31:43;92912.19;;;2.96;100.00
21588;BME280;10956;48.878;13.316;2022-12-10T10:34:26;92908.81;;;3.01;100.00
21588;BME280;10956;48.878;13.316;2022-12-10T10:36:59;92905.72;;;3.04;100.00
21588;BME280;10956;48.878;13.316;2022-12-10T10:39:32;92907.78;;;3.02;100.00
21588;BME280;10956;48.878;13.316;2022-12-10T10:42:08;92907.28;;;3.05;100.00
21588;BME280;10956;48.878;13.316;2022-12-10T10:44:37;92902.38;;;3.08;100.00
21588;BME280;10956;48.878;13.316;2022-12-10T10:47:24;92908.84;;;3.06;100.00
21588;BME280;10956;48.878;13.316;2022-12-10T10:49:50;92901.06;;;3.06;100.00
21588;BME280;10956;48.878;13.316;2022-12-10T10:52:16;92910.69;;;3.05;100.00
21588;BME280;10956;48.878;13.316;2022-12-10T10:54:44;92902.66;;;3.12;100.00
21588;BME280;10956;48.878;13.316;2022-12-10T10:59:49;92899.75;;;3.08;100.00
21588;BME280;10956;48.878;13.316;2022-12-10T11:02:29;92899.97;;;3.02;100.00
21588;BME280;10956;48.878;13.316;2022-12-10T11:04:55;92902.47;;;2.86;100.00
21588;BME280;10956;48.878;13.316;2022-12-10T11:07:35;92909.72;;;2.79;100.00
21588;BME280;10956;48.878;13.316;2022-12-10T11:10:04;92902.88;;;2.68;100.00
21588;BME280;10956;48.878;13.316;2022-12-10T11:12:40;92904.84;;;2.56;100.00
21588;BME280;10956;48.878;13.316;2022-12-10T11:17:54;92888.81;;;2.37;100.00
21588;BME280;10956;48.878;13.316;2022-12-10T11:20:26;92894.34;;;2.46;100.00
21588;BME280;10956;48.878;13.316;2022-12-10T11:22:55;92898.06;;;2.55;100.00
21588;BME280;10956;48.878;13.316;2022-12-10T11:28:05;92898.06;;;2.55;100.00
21588;BME280;10956;48.878;13.316;2022-12-10T11:30:35;92900.06;;;2.43;100.00
21588;BME280;10956;48.878;13.316;2022-12-10T11:39:01;92894.94;;;2.53;100.00
21588;BME280;10956;48.878;13.316;2022-12-10T11:41:48;92896.53;;;2.59;100.00
21588;BME280;10956;48.878;13.316;2022-12-10T11:44:50;92898.16;;;2.65;100.00
21588;BME280;10956;48.878;13.316;2022-12-10T11:52:57;92889.91;;;2.73;100.00
21588;BME280;10956;48.878;13.316;2022-12-10T11:55:39;92897.75;;;2.78;100.00
21588;BME280;10956;48.878;13.316;2022-12-10T12:00:57;92887.63;;;2.82;100.00
21588;BME280;10956;48.878;13.316;2022-12-10T12:09:12;92895.16;;;2.83;100.00
21588;BME280;10956;48.878;13.316;2022-12-10T12:14:45;92898.31;;;2.85;100.00
21588;BME280;10956;48.878;13.316;2022-12-10T12:17:42;92893.59;;;2.82;100.00
21588;BME280;10956;48.878;13.316;2022-12-10T12:20:25;92883.19;;;2.82;100.00
21588;BME280;10956;48.878;13.316;2022-12-10T12:23:00;92882.19;;;2.88;100.00
21588;BME280;10956;48.878;13.316;2022-12-10T12:25:39;92885.91;;;2.98;100.00
21588;BME280;10956;48.878;13.316;2022-12-10T12:28:12;92891.38;;;3.01;100.00
21588;BME280;10956;48.878;13.316;2022-12-10T12:30:41;92891.59;;;2.95;100.00
21588;BME280;10956;48.878;13.316;2022-12-10T12:33:20;92887.69;;;2.92;100.00
21588;BME280;10956;48.878;13.316;2022-12-10T12:35:56;92880.13;;;2.90;100.00
21588;BME280;10956;48.878;13.316;2022-12-10T12:41:03;92890.69;;;2.74;100.00
21588;BME280;10956;48.878;13.316;2022-12-10T12:43:44;92888.34;;;2.72;100.00
21588;BME280;10956;48.878;13.316;2022-12-10T12:46:18;92889.59;;;2.70;100.00
21588;BME280;10956;48.878;13.316;2022-12-10T12:49:01;92888.81;;;2.69;100.00
21588;BME280;10956;48.878;13.316;2022-12-10T12:51:39;92890.41;;;2.70;100.00
21588;BME280;10956;48.878;13.316;2022-12-10T12:54:08;92896.63;;;2.69;100.00
21588;BME280;10956;48.878;13.316;2022-12-10T12:56:56;92902.88;;;2.68;100.00
21588;BME280;10956;48.878;13.316;2022-12-10T12:59:34;92900.72;;;2.60;100.00
21588;BME280;10956;48.878;13.316;2022-12-10T13:02:19;92889.75;;;2.53;100.00
21588;BME280;10956;48.878;13.316;2022-12-10T13:04:47;92889.69;;;2.48;100.00
21588;BME280;10956;48.878;13.316;2022-12-10T13:09:45;92897.50;;;2.48;100.00
21588;BME280;10956;48.878;13.316;2022-12-10T13:17:36;92898.56;;;2.52;100.00
21588;BME280;10956;48.878;13.316;2022-12-10T13:20:35;92900.63;;;2.50;100.00
21588;BME280;10956;48.878;13.316;2022-12-10T13:28:50;92911.03;;;2.50;100.00
21588;BME280;10956;48.878;13.316;2022-12-10T13:34:22;92921.34;;;2.40;100.00
21588;BME280;10956;48.878;13.316;2022-12-10T13:39:36;92907.81;;;2.38;100.00
21588;BME280;10956;48.878;13.316;2022-12-10T13:47:49;92911.94;;;2.34;100.00
21588;BME280;10956;48.878;13.316;2022-12-10T14:01:37;92924.97;;;2.12;100.00
21588;BME280;10956;48.878;13.316;2022-12-10T14:04:33;92928.91;;;2.14;100.00
21588;BME280;10956;48.878;13.316;2022-12-10T14:07:03;92936.16;;;2.12;100.00
21588;BME280;10956;48.878;13.316;2022-12-10T14:09:31;92933.31;;;2.14;100.00
21588;BME280;10956;48.878;13.316;2022-12-10T14:12:24;92934.63;;;2.16;100.00
21588;BME280;10956;48.878;13.316;2022-12-10T14:14:56;92930.47;;;2.15;100.00
21588;BME280;10956;48.878;13.316;2022-12-10T14:17:35;92931.50;;;2.14;100.00
21588;BME280;10956;48.878;13.316;2022-12-10T14:20:04;92926.84;;;2.16;100.00
21588;BME280;10956;48.878;13.316;2022-12-10T14:22:37;92931.00;;;2.17;100.00
21588;BME280;10956;48.878;13.316;2022-12-10T14:25:09;92935.16;;;2.18;100.00
21588;BME280;10956;48.878;13.316;2022-12-10T14:27:36;92938.00;;;2.17;100.00
21588;BME280;10956;48.878;13.316;2022-12-10T14:30:06;92944.00;;;2.17;100.00